Time,TemperatureF,DewpointF,PressureIn,WindDirection,WindDirectionDegrees,WindSpeedMPH,WindSpeedGustMPH,Humidity,HourlyPrecipIn,Conditions,Clouds,dailyrainin,SolarRadiationWatts/m^2,SoftwareType,DateUTC
2013-06-29 00:00:00,57.5,-99.9,20.00,WSW,239,0.0,0.0,255,0.00,,,0.00,0,Wunderground v.1.15,2013-06-29 07:00:00,
2013-06-29 00:10:00,57.6,-99.9,20.00,WSW,239,0.0,0.0,255,0.00,,,0.00,0,Wunderground v.1.15,2013-06-29 07:10:00,
2013-06-29 00:20:00,57.1,-99.9,20.00,WSW,239,0.0,0.0,255,0.00,,,0.00,0,Wunderground v.1.15,2013-06-29 07:20:00,
2013-06-29 00:25:00,57.4,-99.9,20.00,WSW,239,1.0,1.0,255,0.00,,,0.00,0,Wunderground v.1.15,2013-06-29 07:25:00,
2013-06-29 00:35:00,57.3,-99.9,20.00,WSW,239,0.0,1.0,255,0.00,,,0.00,0,Wunderground v.1.15,2013-06-29 07:35:00,
2013-06-29 00:45:00,56.7,-99.9,20.00,WSW,239,0.0,1.0,255,0.00,,,0.00,0,Wunderground v.1.15,2013-06-29 07:45:00,
2013-06-29 00:55:00,56.7,-99.9,20.00,WSW,239,4.0,4.0,255,0.00,,,0.00,0,Wunderground v.1.15,2013-06-29 07:55:00,
2013-06-29 01:00:00,56.8,-99.9,20.00,WSW,239,1.0,1.0,255,0.00,,,0.00,0,Wunderground v.1.15,2013-06-29 08:00:00,
2013-06-29 01:10:00,57.0,-99.9,20.00,WSW,239,0.0,0.0,255,0.00,,,0.00,0,Wunderground v.1.15,2013-06-29 08:10:00,
2013-06-29 01:20:00,56.3,-99.9,20.00,WSW,239,1.0,1.0,255,0.00,,,0.00,0,Wunderground v.1.15,2013-06-29 08:20:00,
2013-06-29 01:30:00,56.4,-99.9,20.00,WSW,239,0.0,0.0,255,0.00,,,0.00,0,Wunderground v.1.15,2013-06-29 08:30:00,
2013-06-29 01:40:00,56.4,-99.9,20.00,WSW,239,2.0,2.0,255,0.00,,,0.00,0,Wunderground v.1.15,2013-06-29 08:40:00,
2013-06-29 01:50:00,56.5,-99.9,20.00,WSW,239,0.0,0.0,255,0.00,,,0.00,0,Wunderground v.1.15,2013-06-29 08:50:00,
2013-06-29 02:00:00,55.8,-99.9,20.00,WSW,239,0.0,0.0,255,0.00,,,0.00,0,Wunderground v.1.15,2013-06-29 09:00:00,
2013-06-29 02:10:00,56.2,-99.9,20.00,WSW,239,2.0,2.0,255,0.00,,,0.00,0,Wunderground v.1.15,2013-06-29 09:10:00,
2013-06-29 02:20:00,56.8,-99.9,20.00,WSW,239,0.0,0.0,255,0.00,,,0.00,0,Wunderground v.1.15,2013-06-29 09:20:00,
2013-06-29 02:30:00,56.6,-99.9,20.00,WSW,239,0.0,0.0,255,0.00,,,0.00,0,Wunderground v.1.15,2013-06-29 09:30:00,
2013-06-29 02:40:00,56.9,-99.9,20.00,WSW,239,0.0,0.0,255,0.00,,,0.00,0,Wunderground v.1.15,2013-06-29 09:40:00,
2013-06-29 02:50:00,57.1,-99.9,20.00,WSW,239,0.0,0.0,255,0.00,,,0.00,0,Wunderground v.1.15,2013-06-29 09:50:00,
2013-06-29 03:00:00,55.8,-99.9,20.00,WSW,239,0.0,0.0,255,0.00,,,0.00,0,Wunderground v.1.15,2013-06-29 10:00:00,
2013-06-29 03:10:00,55.5,-99.9,20.00,WSW,239,0.0,0.0,255,0.00,,,0.00,0,Wunderground v.1.15,2013-06-29 10:10:00,
2013-06-29 03:15:00,55.8,-99.9,20.00,WSW,239,0.0,0.0,255,0.00,,,0.00,0,Wunderground v.1.15,2013-06-29 10:15:00,
2013-06-29 03:25:00,56.6,-99.9,20.00,WSW,239,0.0,0.0,255,0.00,,,0.00,0,Wunderground v.1.15,2013-06-29 10:25:00,
2013-06-29 03:35:00,55.9,-99.9,20.00,WSW,239,2.0,2.0,255,0.00,,,0.00,0,Wunderground v.1.15,2013-06-29 10:35:00,
2013-06-29 03:45:00,55.7,-99.9,20.00,WSW,239,4.0,4.0,255,0.00,,,0.00,0,Wunderground v.1.15,2013-06-29 10:45:00,
2013-06-29 03:55:00,56.2,-99.9,20.00,WSW,239,0.0,0.0,255,0.00,,,0.00,0,Wunderground v.1.15,2013-06-29 10:55:00,
2013-06-29 04:00:00,56.8,-99.9,20.00,WSW,239,0.0,0.0,255,0.00,,,0.00,0,Wunderground v.1.15,2013-06-29 11:00:00,
2013-06-29 04:10:00,55.9,-99.9,20.00,WSW,239,2.0,2.0,255,0.00,,,0.00,0,Wunderground v.1.15,2013-06-29 11:10:00,
2013-06-29 04:15:00,56.1,-99.9,20.00,WSW,239,2.0,2.0,255,0.00,,,0.00,0,Wunderground v.1.15,2013-06-29 11:15:00,
2013-06-29 04:25:00,56.3,-99.9,20.00,WSW,239,3.0,3.0,255,0.00,,,0.00,0,Wunderground v.1.15,2013-06-29 11:25:00,
2013-06-29 04:35:00,56.3,-99.9,20.00,WSW,246,4.0,4.0,255,0.00,,,0.00,0,Wunderground v.1.15,2013-06-29 11:35:00,
2013-06-29 04:45:00,56.8,-99.9,20.00,WSW,247,0.0,0.0,255,0.00,,,0.00,0,Wunderground v.1.15,2013-06-29 11:45:00,
2013-06-29 04:55:00,56.5,-99.9,20.00,WSW,247,0.0,0.0,255,0.00,,,0.00,0,Wunderground v.1.15,2013-06-29 11:55:00,
2013-06-29 05:00:00,55.8,-99.9,20.00,WSW,247,0.0,0.0,255,0.00,,,0.00,0,Wunderground v.1.15,2013-06-29 12:00:00,
2013-06-29 05:10:00,56.1,-99.9,20.00,WSW,244,3.0,3.0,255,0.00,,,0.00,0,Wunderground v.1.15,2013-06-29 12:10:00,
2013-06-29 05:20:00,56.3,-99.9,20.00,SW,233,0.0,0.0,255,0.00,,,0.00,0,Wunderground v.1.15,2013-06-29 12:20:00,
2013-06-29 05:30:00,54.6,-99.9,20.00,ENE,62,6.0,6.0,255,0.00,,,0.00,0,Wunderground v.1.15,2013-06-29 12:30:00,
2013-06-29 05:40:00,54.4,-99.9,20.00,ENE,65,2.0,2.0,255,0.00,,,0.00,0,Wunderground v.1.15,2013-06-29 12:40:00,
2013-06-29 05:50:00,55.9,-99.9,20.00,ENE,65,0.0,0.0,255,0.00,,,0.00,0,Wunderground v.1.15,2013-06-29 12:50:00,
2013-06-29 05:55:00,56.3,-99.9,20.00,SW,219,4.0,4.0,255,0.00,,,0.00,0,Wunderground v.1.15,2013-06-29 12:55:00,
2013-06-29 06:00:00,56.7,-99.9,20.00,SW,224,2.0,2.0,255,0.00,,,0.00,0,Wunderground v.1.15,2013-06-29 13:00:00,
2013-06-29 06:10:00,60.2,-99.9,20.00,SW,234,4.0,4.0,255,0.00,,,0.00,0,Wunderground v.1.15,2013-06-29 13:10:00,
2013-06-29 06:20:00,61.5,-99.9,20.00,WSW,242,5.0,5.0,255,0.00,,,0.00,0,Wunderground v.1.15,2013-06-29 13:20:00,
2013-06-29 06:25:00,68.5,-99.9,20.00,WSW,256,3.0,5.0,255,0.00,,,0.00,0,Wunderground v.1.15,2013-06-29 13:25:00,
2013-06-29 06:35:00,60.5,-99.9,20.00,WSW,256,0.0,0.0,255,0.00,,,0.00,0,Wunderground v.1.15,2013-06-29 13:35:00,
2013-06-29 06:45:00,58.0,-99.9,20.00,WNW,287,0.0,4.0,255,0.00,,,0.00,0,Wunderground v.1.15,2013-06-29 13:45:00,
2013-06-29 06:55:00,59.9,-99.9,20.00,WNW,288,0.0,0.0,255,0.00,,,0.00,0,Wunderground v.1.15,2013-06-29 13:55:00,
2013-06-29 07:00:00,59.1,-99.9,20.00,WNW,288,2.0,2.0,255,0.00,,,0.00,0,Wunderground v.1.15,2013-06-29 14:00:00,
2013-06-29 07:10:00,67.1,-99.9,20.00,WNW,288,0.0,0.0,255,0.00,,,0.00,0,Wunderground v.1.15,2013-06-29 14:10:00,
2013-06-29 07:20:00,66.0,-99.9,20.00,WNW,288,2.0,2.0,255,0.00,,,0.00,0,Wunderground v.1.15,2013-06-29 14:20:00,
2013-06-29 07:30:00,64.2,-99.9,20.00,WNW,288,0.0,0.0,255,0.00,,,0.00,0,Wunderground v.1.15,2013-06-29 14:30:00,
2013-06-29 07:40:00,61.6,-99.9,20.00,WNW,288,0.0,0.0,255,0.00,,,0.00,0,Wunderground v.1.15,2013-06-29 14:40:00,
2013-06-29 07:50:00,61.3,-99.9,20.00,WNW,288,0.0,0.0,255,0.00,,,0.00,0,Wunderground v.1.15,2013-06-29 14:50:00,
2013-06-29 08:00:00,81.8,-99.9,20.00,West,276,4.0,4.0,255,0.00,,,0.00,0,Wunderground v.1.15,2013-06-29 15:00:00,
2013-06-29 08:10:00,83.5,-99.9,20.00,West,263,0.0,0.0,255,0.00,,,0.00,0,Wunderground v.1.15,2013-06-29 15:10:00,
2013-06-29 08:20:00,81.0,-99.9,20.00,SW,216,2.0,2.0,255,0.00,,,0.00,0,Wunderground v.1.15,2013-06-29 15:20:00,
2013-06-29 08:25:00,84.2,-99.9,20.00,SW,216,1.0,2.0,255,0.00,,,0.00,0,Wunderground v.1.15,2013-06-29 15:25:00,
2013-06-29 08:35:00,82.9,-99.9,20.00,SW,216,3.0,3.0,255,0.00,,,0.00,0,Wunderground v.1.15,2013-06-29 15:35:00,
2013-06-29 08:40:00,84.4,-99.9,20.00,SW,216,0.0,0.0,255,0.00,,,0.00,0,Wunderground v.1.15,2013-06-29 15:40:00,
2013-06-29 08:50:00,92.0,-99.9,20.00,SW,220,0.0,0.0,255,0.00,,,0.00,0,Wunderground v.1.15,2013-06-29 15:50:00,
2013-06-29 09:00:00,80.0,-99.9,20.00,SW,220,2.0,2.0,255,0.00,,,0.00,0,Wunderground v.1.15,2013-06-29 16:00:00,
2013-06-29 09:10:00,73.5,-99.9,20.00,SW,217,2.0,2.0,255,0.00,,,0.00,0,Wunderground v.1.15,2013-06-29 16:10:00,
2013-06-29 09:15:00,71.3,-99.9,20.00,SW,216,4.0,4.0,255,0.00,,,0.00,0,Wunderground v.1.15,2013-06-29 16:15:00,
2013-06-29 09:25:00,79.9,-99.9,20.00,SSW,213,3.0,4.0,255,0.00,,,0.00,0,Wunderground v.1.15,2013-06-29 16:25:00,
2013-06-29 09:35:00,84.5,-99.9,20.00,SSW,206,0.0,5.0,255,0.00,,,0.00,0,Wunderground v.1.15,2013-06-29 16:35:00,
2013-06-29 09:45:00,81.4,-99.9,20.00,SSW,208,5.0,5.0,255,0.00,,,0.00,0,Wunderground v.1.15,2013-06-29 16:45:00,
2013-06-29 09:55:00,81.9,-99.9,20.00,SW,231,2.0,4.0,255,0.00,,,0.00,0,Wunderground v.1.15,2013-06-29 16:55:00,
2013-06-29 10:00:00,78.1,-99.9,20.00,SSW,196,5.0,5.0,255,0.00,,,0.00,0,Wunderground v.1.15,2013-06-29 17:00:00,
2013-06-29 10:10:00,76.4,-99.9,20.00,SW,235,5.0,5.0,255,0.00,,,0.00,0,Wunderground v.1.15,2013-06-29 17:10:00,
2013-06-29 10:20:00,76.1,-99.9,20.00,SSW,205,6.0,6.0,255,0.00,,,0.00,0,Wunderground v.1.15,2013-06-29 17:20:00,
2013-06-29 10:30:00,79.7,-99.9,20.00,SSW,211,1.0,1.0,255,0.00,,,0.00,0,Wunderground v.1.15,2013-06-29 17:30:00,
2013-06-29 10:40:00,77.1,-99.9,20.00,SW,214,3.0,3.0,255,0.00,,,0.00,0,Wunderground v.1.15,2013-06-29 17:40:00,
2013-06-29 10:50:00,82.1,-99.9,20.00,SW,234,6.0,6.0,255,0.00,,,0.00,0,Wunderground v.1.15,2013-06-29 17:50:00,
2013-06-29 11:00:00,86.9,-99.9,20.00,SW,223,6.0,6.0,255,0.00,,,0.00,0,Wunderground v.1.15,2013-06-29 18:00:00,
2013-06-29 11:10:00,84.2,-99.9,20.00,SSW,211,5.0,5.0,255,0.00,,,0.00,0,Wunderground v.1.15,2013-06-29 18:10:00,
2013-06-29 11:20:00,81.6,-99.9,20.00,WSW,239,0.0,0.0,255,0.00,,,0.00,0,Wunderground v.1.15,2013-06-29 18:20:00,
2013-06-29 11:25:00,86.6,-99.9,20.00,SW,231,5.0,5.0,255,0.00,,,0.00,0,Wunderground v.1.15,2013-06-29 18:25:00,
2013-06-29 11:35:00,84.1,-99.9,20.00,SW,221,2.0,7.0,255,0.00,,,0.00,0,Wunderground v.1.15,2013-06-29 18:35:00,
2013-06-29 11:45:00,79.6,-99.9,20.00,WSW,240,6.0,8.0,255,0.00,,,0.00,0,Wunderground v.1.15,2013-06-29 18:45:00,
2013-06-29 11:50:00,80.3,-99.9,20.00,SW,231,4.0,4.0,255,0.00,,,0.00,0,Wunderground v.1.15,2013-06-29 18:50:00,
2013-06-29 12:00:00,81.4,-99.9,20.00,SW,227,4.0,4.0,255,0.00,,,0.00,0,Wunderground v.1.15,2013-06-29 19:00:00,
2013-06-29 12:10:00,81.0,-99.9,20.00,SW,214,3.0,3.0,255,0.00,,,0.00,0,Wunderground v.1.15,2013-06-29 19:10:00,
2013-06-29 12:20:00,82.2,-99.9,20.00,SW,236,5.0,5.0,255,0.00,,,0.00,0,Wunderground v.1.15,2013-06-29 19:20:00,
2013-06-29 12:30:00,84.5,-99.9,20.00,SW,230,6.0,6.0,255,0.00,,,0.00,0,Wunderground v.1.15,2013-06-29 19:30:00,
2013-06-29 12:40:00,79.3,-99.9,20.00,SSW,212,5.0,5.0,255,0.00,,,0.00,0,Wunderground v.1.15,2013-06-29 19:40:00,
2013-06-29 12:45:00,77.9,-99.9,20.00,South,184,7.0,7.0,255,0.00,,,0.00,0,Wunderground v.1.15,2013-06-29 19:45:00,
2013-06-29 12:55:00,77.1,-99.9,20.00,SSW,198,7.0,7.0,255,0.00,,,0.00,0,Wunderground v.1.15,2013-06-29 19:55:00,
2013-06-29 13:00:00,74.5,-99.9,20.00,SSW,208,4.0,4.0,255,0.00,,,0.00,0,Wunderground v.1.15,2013-06-29 20:00:00,
2013-06-29 13:10:00,77.6,-99.9,20.00,SSW,209,2.0,2.0,255,0.00,,,0.00,0,Wunderground v.1.15,2013-06-29 20:10:00,
2013-06-29 13:20:00,79.3,-99.9,20.00,SSW,211,7.0,7.0,255,0.00,,,0.00,0,Wunderground v.1.15,2013-06-29 20:20:00,
2013-06-29 13:30:00,77.9,-99.9,20.00,SW,230,4.0,4.0,255,0.00,,,0.00,0,Wunderground v.1.15,2013-06-29 20:30:00,
2013-06-29 13:40:00,80.8,-99.9,20.00,SSW,212,5.0,5.0,255,0.00,,,0.00,0,Wunderground v.1.15,2013-06-29 20:40:00,
2013-06-29 13:45:00,80.2,-99.9,20.00,SW,220,7.0,7.0,255,0.00,,,0.00,0,Wunderground v.1.15,2013-06-29 20:45:00,
2013-06-29 13:55:00,80.3,-99.9,20.00,SW,236,4.0,6.0,255,0.00,,,0.00,0,Wunderground v.1.15,2013-06-29 20:55:00,
2013-06-29 14:00:00,80.1,-99.9,20.00,SW,235,6.0,6.0,255,0.00,,,0.00,0,Wunderground v.1.15,2013-06-29 21:00:00,
2013-06-29 14:10:00,80.1,-99.9,20.00,SW,229,4.0,4.0,255,0.00,,,0.00,0,Wunderground v.1.15,2013-06-29 21:10:00,
2013-06-29 14:20:00,80.1,-99.9,20.00,SW,228,5.0,5.0,255,0.00,,,0.00,0,Wunderground v.1.15,2013-06-29 21:20:00,
2013-06-29 14:30:00,80.7,-99.9,20.00,SW,224,4.0,4.0,255,0.00,,,0.00,0,Wunderground v.1.15,2013-06-29 21:30:00,
2013-06-29 14:40:00,78.9,-99.9,20.00,SW,214,6.0,6.0,255,0.00,,,0.00,0,Wunderground v.1.15,2013-06-29 21:40:00,
2013-06-29 14:50:00,78.4,-99.9,20.00,SW,234,6.0,6.0,255,0.00,,,0.00,0,Wunderground v.1.15,2013-06-29 21:50:00,
2013-06-29 15:00:00,78.8,-99.9,20.00,WSW,240,2.0,2.0,255,0.00,,,0.00,0,Wunderground v.1.15,2013-06-29 22:00:00,
2013-06-29 15:10:00,78.4,-99.9,20.00,SSW,213,3.0,3.0,255,0.00,,,0.00,0,Wunderground v.1.15,2013-06-29 22:10:00,
2013-06-29 15:15:00,79.9,-99.9,20.00,SSW,207,6.0,6.0,255,0.00,,,0.00,0,Wunderground v.1.15,2013-06-29 22:15:00,
2013-06-29 15:25:00,77.0,-99.9,20.00,SSW,194,7.0,7.0,255,0.00,,,0.00,0,Wunderground v.1.15,2013-06-29 22:25:00,
2013-06-29 15:35:00,79.0,-99.9,20.00,SW,228,5.0,6.0,255,0.00,,,0.00,0,Wunderground v.1.15,2013-06-29 22:35:00,
2013-06-29 15:45:00,79.6,-99.9,20.00,WSW,239,5.0,5.0,255,0.00,,,0.00,0,Wunderground v.1.15,2013-06-29 22:45:00,
2013-06-29 15:55:00,80.2,-99.9,20.00,SW,219,5.0,5.0,255,0.00,,,0.00,0,Wunderground v.1.15,2013-06-29 22:55:00,
2013-06-29 16:00:00,79.3,-99.9,20.00,SW,236,2.0,2.0,255,0.00,,,0.00,0,Wunderground v.1.15,2013-06-29 23:00:00,
2013-06-29 16:10:00,80.0,-99.9,20.00,SW,232,2.0,2.0,255,0.00,,,0.00,0,Wunderground v.1.15,2013-06-29 23:10:00,
2013-06-29 16:20:00,80.2,-99.9,20.00,SW,236,5.0,5.0,255,0.00,,,0.00,0,Wunderground v.1.15,2013-06-29 23:20:00,
2013-06-29 16:30:00,80.4,-99.9,20.00,WSW,242,5.0,5.0,255,0.00,,,0.00,0,Wunderground v.1.15,2013-06-29 23:30:00,
2013-06-29 16:40:00,80.6,-99.9,20.00,West,263,4.0,4.0,255,0.00,,,0.00,0,Wunderground v.1.15,2013-06-29 23:40:00,
2013-06-29 16:50:00,78.2,-99.9,20.00,SW,236,5.0,5.0,255,0.00,,,0.00,0,Wunderground v.1.15,2013-06-29 23:50:00,
2013-06-29 17:00:00,79.0,-99.9,20.00,WSW,249,2.0,2.0,255,0.00,,,0.00,0,Wunderground v.1.15,2013-06-30 00:00:00,
2013-06-29 17:10:00,77.0,-99.9,20.00,South,189,4.0,4.0,255,0.00,,,0.00,0,Wunderground v.1.15,2013-06-30 00:10:00,
2013-06-29 17:20:00,75.7,-99.9,20.00,SSW,195,4.0,4.0,255,0.00,,,0.00,0,Wunderground v.1.15,2013-06-30 00:20:00,
2013-06-29 17:25:00,74.2,-99.9,20.00,SW,226,5.0,5.0,255,0.00,,,0.00,0,Wunderground v.1.15,2013-06-30 00:25:00,
2013-06-29 17:35:00,73.7,-99.9,20.00,SSW,205,9.0,9.0,255,0.00,,,0.00,0,Wunderground v.1.15,2013-06-30 00:35:00,
2013-06-29 17:45:00,73.8,-99.9,20.00,SW,221,4.0,4.0,255,0.00,,,0.00,0,Wunderground v.1.15,2013-06-30 00:45:00,
2013-06-29 17:50:00,75.2,-99.9,20.00,WSW,241,2.0,2.0,255,0.00,,,0.00,0,Wunderground v.1.15,2013-06-30 00:50:00,
2013-06-29 18:00:00,75.7,-99.9,20.00,SW,226,6.0,6.0,255,0.00,,,0.00,0,Wunderground v.1.15,2013-06-30 01:00:00,
2013-06-29 18:10:00,74.2,-99.9,20.00,SW,227,5.0,5.0,255,0.00,,,0.00,0,Wunderground v.1.15,2013-06-30 01:10:00,
2013-06-29 18:20:00,73.9,-99.9,20.00,SW,230,6.0,6.0,255,0.00,,,0.00,0,Wunderground v.1.15,2013-06-30 01:20:00,
2013-06-29 18:25:00,74.6,-99.9,20.00,WSW,239,7.0,7.0,255,0.00,,,0.00,0,Wunderground v.1.15,2013-06-30 01:25:00,
2013-06-29 18:35:00,74.0,-99.9,20.00,WSW,250,6.0,6.0,255,0.00,,,0.00,0,Wunderground v.1.15,2013-06-30 01:35:00,
2013-06-29 18:45:00,73.6,-99.9,20.00,SW,231,8.0,8.0,255,0.00,,,0.00,0,Wunderground v.1.15,2013-06-30 01:45:00,
2013-06-29 18:50:00,73.3,-99.9,20.00,WSW,243,7.0,7.0,255,0.00,,,0.00,0,Wunderground v.1.15,2013-06-30 01:50:00,
2013-06-29 19:00:00,72.6,-99.9,20.00,WSW,246,6.0,6.0,255,0.00,,,0.00,0,Wunderground v.1.15,2013-06-30 02:00:00,
2013-06-29 19:10:00,72.3,-99.9,20.00,WSW,238,7.0,7.0,255,0.00,,,0.00,0,Wunderground v.1.15,2013-06-30 02:10:00,
2013-06-29 19:20:00,71.1,-99.9,20.00,WSW,238,0.0,0.0,255,0.00,,,0.00,0,Wunderground v.1.15,2013-06-30 02:20:00,
2013-06-29 19:30:00,71.0,-99.9,20.00,WSW,246,4.0,4.0,255,0.00,,,0.00,0,Wunderground v.1.15,2013-06-30 02:30:00,
2013-06-29 19:40:00,70.4,-99.9,20.00,WSW,256,2.0,2.0,255,0.00,,,0.00,0,Wunderground v.1.15,2013-06-30 02:40:00,
2013-06-29 19:45:00,70.0,-99.9,20.00,WSW,246,5.0,5.0,255,0.00,,,0.00,0,Wunderground v.1.15,2013-06-30 02:45:00,
2013-06-29 19:55:00,69.2,-99.9,20.00,WSW,242,5.0,5.0,255,0.00,,,0.00,0,Wunderground v.1.15,2013-06-30 02:55:00,
2013-06-29 20:00:00,69.3,-99.9,20.00,SW,232,4.0,4.0,255,0.00,,,0.00,0,Wunderground v.1.15,2013-06-30 03:00:00,
2013-06-29 20:10:00,68.9,-99.9,20.00,WSW,253,2.0,2.0,255,0.00,,,0.00,0,Wunderground v.1.15,2013-06-30 03:10:00,
2013-06-29 20:20:00,67.7,-99.9,20.00,WSW,242,5.0,5.0,255,0.00,,,0.00,0,Wunderground v.1.15,2013-06-30 03:20:00,
2013-06-29 20:30:00,67.1,-99.9,20.00,WSW,248,3.0,3.0,255,0.00,,,0.00,0,Wunderground v.1.15,2013-06-30 03:30:00,
2013-06-29 20:40:00,66.8,-99.9,20.00,SW,233,3.0,3.0,255,0.00,,,0.00,0,Wunderground v.1.15,2013-06-30 03:40:00,
2013-06-29 20:50:00,66.0,-99.9,20.00,SW,227,3.0,3.0,255,0.00,,,0.00,0,Wunderground v.1.15,2013-06-30 03:50:00,
2013-06-29 21:00:00,64.9,-99.9,20.00,SW,233,2.0,2.0,255,0.00,,,0.00,0,Wunderground v.1.15,2013-06-30 04:00:00,
2013-06-29 21:05:00,64.7,-99.9,20.00,SSW,213,3.0,3.0,255,0.00,,,0.00,0,Wunderground v.1.15,2013-06-30 04:05:00,
2013-06-29 21:10:00,63.5,-99.9,20.00,SW,215,3.0,3.0,255,0.00,,,0.00,0,Wunderground v.1.15,2013-06-30 04:10:00,
2013-06-29 21:15:00,63.3,-99.9,20.00,SW,215,0.0,3.0,255,0.00,,,0.00,0,Wunderground v.1.15,2013-06-30 04:15:00,
2013-06-29 21:25:00,63.6,-99.9,20.00,SW,233,2.0,2.0,255,0.00,,,0.00,0,Wunderground v.1.15,2013-06-30 04:25:00,
2013-06-29 21:35:00,63.7,-99.9,20.00,WSW,249,4.0,6.0,255,0.00,,,0.00,0,Wunderground v.1.15,2013-06-30 04:35:00,
2013-06-29 21:40:00,63.9,-99.9,20.00,WSW,250,3.0,3.0,255,0.00,,,0.00,0,Wunderground v.1.15,2013-06-30 04:40:00,
2013-06-29 21:50:00,63.6,-99.9,20.00,WSW,253,1.0,1.0,255,0.00,,,0.00,0,Wunderground v.1.15,2013-06-30 04:50:00,
2013-06-29 21:55:00,63.5,-99.9,20.00,WSW,251,3.0,3.0,255,0.00,,,0.00,0,Wunderground v.1.15,2013-06-30 04:55:00,
2013-06-29 22:00:00,62.9,-99.9,20.00,WSW,251,3.0,3.0,255,0.00,,,0.00,0,Wunderground v.1.15,2013-06-30 05:00:00,
2013-06-29 22:10:00,62.3,-99.9,20.00,SW,233,3.0,3.0,255,0.00,,,0.00,0,Wunderground v.1.15,2013-06-30 05:10:00,
2013-06-29 22:20:00,62.8,-99.9,20.00,SW,234,0.0,0.0,255,0.00,,,0.00,0,Wunderground v.1.15,2013-06-30 05:20:00,
2013-06-29 22:30:00,60.8,-99.9,20.00,SW,234,0.0,0.0,255,0.00,,,0.00,0,Wunderground v.1.15,2013-06-30 05:30:00,
2013-06-29 22:40:00,61.3,-99.9,20.00,SW,234,0.0,0.0,255,0.00,,,0.00,0,Wunderground v.1.15,2013-06-30 05:40:00,
2013-06-29 22:50:00,61.3,-99.9,20.00,SW,234,0.0,0.0,255,0.00,,,0.00,0,Wunderground v.1.15,2013-06-30 05:50:00,
2013-06-29 23:00:00,60.5,-99.9,20.00,SW,234,0.0,0.0,255,0.00,,,0.00,0,Wunderground v.1.15,2013-06-30 06:00:00,
2013-06-29 23:10:00,59.7,-99.9,20.00,SW,234,1.0,1.0,255,0.00,,,0.00,0,Wunderground v.1.15,2013-06-30 06:10:00,
2013-06-29 23:20:00,59.9,-99.9,20.00,SW,234,1.0,1.0,255,0.00,,,0.00,0,Wunderground v.1.15,2013-06-30 06:20:00,
2013-06-29 23:25:00,59.6,-99.9,20.00,SW,234,2.0,2.0,255,0.00,,,0.00,0,Wunderground v.1.15,2013-06-30 06:25:00,
2013-06-29 23:35:00,59.3,-99.9,20.00,SW,234,2.0,2.0,255,0.00,,,0.00,0,Wunderground v.1.15,2013-06-30 06:35:00,
2013-06-29 23:45:00,59.3,-99.9,20.00,SW,234,1.0,3.0,255,0.00,,,0.00,0,Wunderground v.1.15,2013-06-30 06:45:00,
2013-06-29 23:55:00,59.0,-99.9,20.00,SW,234,0.0,1.0,255,0.00,,,0.00,0,Wunderground v.1.15,2013-06-30 06:55:00,